createdAt,value
2019-06-27T00:01:07.684Z,99.90
2019-06-27T00:03:38.945Z,99.90
2019-06-27T00:06:09.545Z,99.90
2019-06-27T00:08:40.497Z,99.90
2019-06-27T00:11:11.381Z,99.90
2019-06-27T00:13:42.682Z,99.90
2019-06-27T00:16:13.512Z,99.90
2019-06-27T00:18:45.088Z,99.90
2019-06-27T00:21:16.016Z,99.90
2019-06-27T00:23:47.732Z,99.90
2019-06-27T00:26:19.332Z,99.90
2019-06-27T00:28:50.878Z,99.90
2019-06-27T00:31:21.854Z,99.90
2019-06-27T00:33:52.405Z,99.90
2019-06-27T00:36:23.601Z,99.90
2019-06-27T00:38:54.546Z,99.90
2019-06-27T00:41:26.075Z,99.90
2019-06-27T00:43:57.339Z,99.90
2019-06-27T00:46:28.888Z,99.90
2019-06-27T00:49:00.792Z,99.90
2019-06-27T00:51:31.645Z,99.90
2019-06-27T00:54:02.511Z,99.90
2019-06-27T00:56:34.501Z,99.90
2019-06-27T00:59:06.057Z,99.90
2019-06-27T02:00:58.522Z,99.90
2019-06-27T02:03:30.301Z,99.90
2019-06-27T02:06:01.321Z,99.90
2019-06-27T02:08:31.949Z,99.90
2019-06-27T02:11:02.775Z,99.90
2019-06-27T02:13:34.387Z,99.90
2019-06-27T02:16:05.276Z,99.90
2019-06-27T02:18:36.254Z,99.90
2019-06-27T02:21:08.122Z,99.90
2019-06-27T02:23:39.365Z,99.90
2019-06-27T02:26:10.280Z,99.90
2019-06-27T02:28:41.719Z,99.90
2019-06-27T02:31:12.294Z,99.90
2019-06-27T02:36:14.959Z,99.90
2019-06-27T02:38:45.936Z,99.90
2019-06-27T02:41:16.889Z,99.90
2019-06-27T02:43:47.445Z,99.90
2019-06-27T02:46:19.444Z,99.90
2019-06-27T02:48:50.906Z,99.90
2019-06-27T02:51:22.916Z,99.90
2019-06-27T02:53:56.765Z,99.90
2019-06-27T02:56:27.319Z,99.90
2019-06-27T02:58:58.191Z,99.90
2019-06-27T03:01:28.996Z,99.90
2019-06-27T03:04:00.264Z,99.90
2019-06-27T03:06:31.771Z,99.90
2019-06-27T03:09:03.317Z,99.90
2019-06-27T03:11:34.157Z,99.90
2019-06-27T03:14:05.053Z,99.90
2019-06-27T03:16:35.943Z,99.90
2019-06-27T03:19:06.763Z,99.90
2019-06-27T03:21:37.605Z,99.90
2019-06-27T03:24:09.487Z,99.90
2019-06-27T03:26:41.021Z,99.90
2019-06-27T03:29:12.794Z,99.90
2019-06-27T03:31:44.435Z,99.90
2019-06-27T03:34:15.890Z,99.90
2019-06-27T03:36:46.861Z,99.90
2019-06-27T03:39:18.033Z,99.90
2019-06-27T03:42:03.992Z,99.90
2019-06-27T03:44:35.058Z,99.90
2019-06-27T03:47:06.753Z,99.90
2019-06-27T03:49:37.344Z,99.90
2019-06-27T03:52:08.844Z,99.90
2019-06-27T03:54:40.391Z,99.90
2019-06-27T03:57:11.754Z,99.90
2019-06-27T03:59:42.999Z,99.90
2019-06-27T04:02:14.177Z,99.90
2019-06-27T04:04:46.814Z,99.90
2019-06-27T04:07:18.359Z,99.90
2019-06-27T04:09:49.890Z,99.90
2019-06-27T04:12:20.818Z,99.90
2019-06-27T04:14:52.383Z,99.90
2019-06-27T04:17:23.280Z,99.90
2019-06-27T04:19:54.158Z,99.90
2019-06-27T04:22:25.328Z,99.90
2019-06-27T04:24:56.136Z,99.90
2019-06-27T04:27:27.722Z,99.90
2019-06-27T04:29:59.509Z,99.90
2019-06-27T04:32:30.460Z,99.90
2019-06-27T04:35:01.972Z,99.90
2019-06-27T04:37:32.963Z,99.90
2019-06-27T04:40:04.368Z,99.90
2019-06-27T04:42:35.959Z,99.90
2019-06-27T04:45:07.736Z,99.90
2019-06-27T04:47:38.874Z,99.90
2019-06-27T04:50:10.572Z,99.90
2019-06-27T04:52:42.254Z,99.90
2019-06-27T04:55:13.374Z,99.90
2019-06-27T04:57:44.464Z,99.90
2019-06-27T05:00:22.522Z,99.90
2019-06-27T05:02:53.040Z,99.90
2019-06-27T05:05:24.588Z,99.90
2019-06-27T05:07:55.431Z,99.90
2019-06-27T05:10:26.994Z,99.90
2019-06-27T05:12:58.612Z,99.90
2019-06-27T05:15:29.443Z,99.90
2019-06-27T05:18:00.634Z,99.90
2019-06-27T05:20:31.146Z,99.90
2019-06-27T05:23:02.264Z,99.90
2019-06-27T05:25:33.650Z,99.90
2019-06-27T05:28:05.708Z,99.90
2019-06-27T05:30:36.518Z,99.90
2019-06-27T05:33:07.389Z,99.90
2019-06-27T05:35:38.838Z,99.90
2019-06-27T05:38:09.805Z,99.90
2019-06-27T05:40:40.974Z,99.90
2019-06-27T05:43:12.945Z,99.90
2019-06-27T05:45:44.171Z,99.90
2019-06-27T05:48:15.381Z,99.90
2019-06-27T05:50:46.568Z,99.90
2019-06-27T05:53:18.131Z,99.90
2019-06-27T05:55:49.208Z,99.90
2019-06-27T05:58:21.096Z,99.90
2019-06-27T06:00:52.035Z,99.90
2019-06-27T06:03:23.542Z,99.90
2019-06-27T06:05:54.871Z,99.90
2019-06-27T06:08:26.011Z,99.90
2019-06-27T06:10:57.100Z,99.90
2019-06-27T06:13:28.194Z,99.90
2019-06-27T06:16:01.076Z,99.90
2019-06-27T06:18:31.733Z,99.90
2019-06-27T06:21:03.004Z,99.90
2019-06-27T06:23:34.040Z,99.90
2019-06-27T06:26:05.293Z,99.90
2019-06-27T06:28:36.719Z,99.90
2019-06-27T06:31:07.674Z,99.90
2019-06-27T06:33:39.232Z,99.90
2019-06-27T06:36:11.119Z,99.90
2019-06-27T06:38:42.392Z,99.90
2019-06-27T06:41:14.971Z,99.90
2019-06-27T06:43:45.971Z,99.90
2019-06-27T06:46:17.539Z,99.90
2019-06-27T06:48:48.052Z,99.90
2019-06-27T06:51:18.666Z,99.90
2019-06-27T06:53:49.844Z,99.90
2019-06-27T06:56:21.061Z,99.90
2019-06-27T06:58:52.202Z,99.90
2019-06-27T07:01:23.004Z,99.90
2019-06-27T07:03:54.285Z,99.90
2019-06-27T07:06:25.899Z,99.90
2019-06-27T07:08:56.737Z,99.90
2019-06-27T07:11:27.810Z,99.90
2019-06-27T07:13:59.172Z,99.90
2019-06-27T07:19:00.490Z,99.90
2019-06-27T07:21:31.677Z,99.90
2019-06-27T07:24:02.871Z,99.90
2019-06-27T07:26:33.720Z,99.90
2019-06-27T07:29:05.199Z,99.90
2019-06-27T07:31:36.312Z,99.90
2019-06-27T07:34:07.524Z,99.90
2019-06-27T07:36:38.769Z,99.90
2019-06-27T07:39:09.985Z,99.90
2019-06-27T07:41:41.437Z,99.90
2019-06-27T07:44:13.658Z,99.90
2019-06-27T07:46:45.431Z,99.90
2019-06-27T07:49:16.860Z,99.90
2019-06-27T07:51:48.196Z,99.90
2019-06-27T07:54:19.141Z,99.90
2019-06-27T07:56:50.300Z,99.90
2019-06-27T07:59:21.185Z,99.90
2019-06-27T08:01:52.656Z,99.90
2019-06-27T08:04:23.600Z,99.90
2019-06-27T08:06:54.779Z,99.90
2019-06-27T08:09:26.272Z,99.90
2019-06-27T08:11:57.812Z,99.90
2019-06-27T08:14:29.641Z,99.90
2019-06-27T08:17:01.615Z,99.90
2019-06-27T08:19:33.134Z,99.90
2019-06-27T08:22:04.706Z,99.90
2019-06-27T08:24:36.434Z,99.90
2019-06-27T08:27:07.623Z,99.90
2019-06-27T08:29:38.345Z,99.90
2019-06-27T08:32:09.464Z,99.90
2019-06-27T08:34:41.341Z,99.90
2019-06-27T08:37:12.843Z,99.90
2019-06-27T08:39:43.629Z,99.90
2019-06-27T08:42:14.411Z,99.90
2019-06-27T08:44:46.226Z,99.90
2019-06-27T08:47:16.991Z,99.90
2019-06-27T08:49:48.752Z,99.90
2019-06-27T08:52:20.277Z,99.90
2019-06-27T08:54:51.369Z,99.90
2019-06-27T08:57:23.068Z,99.90
2019-06-27T08:59:55.448Z,99.90
2019-06-27T09:02:26.585Z,99.90
2019-06-27T09:04:58.148Z,99.90
2019-06-27T09:07:29.647Z,99.80
2019-06-27T09:10:01.577Z,99.90
2019-06-27T09:12:33.063Z,99.20
2019-06-27T09:15:04.849Z,99.70
2019-06-27T09:17:36.203Z,95.90
2019-06-27T09:20:08.653Z,95.80
2019-06-27T09:22:39.894Z,95.00
2019-06-27T09:25:11.003Z,94.30
2019-06-27T09:27:43.638Z,95.80
2019-06-27T09:30:16.017Z,95.30
2019-06-27T09:32:47.553Z,94.50
2019-06-27T09:35:18.248Z,93.40
2019-06-27T09:37:48.949Z,91.90
2019-06-27T09:40:21.203Z,91.50
2019-06-27T09:42:52.814Z,92.80
2019-06-27T09:45:24.663Z,92.80
2019-06-27T09:47:56.234Z,93.10
2019-06-27T09:50:26.960Z,93.50
2019-06-27T09:52:57.804Z,92.90
2019-06-27T09:55:29.622Z,91.60
2019-06-27T09:58:00.764Z,93.60
2019-06-27T10:00:32.405Z,90.90
2019-06-27T10:03:04.212Z,90.50
2019-06-27T10:05:35.053Z,91.20
2019-06-27T10:08:06.512Z,86.10
2019-06-27T10:10:37.605Z,86.60
2019-06-27T10:13:08.794Z,86.20
2019-06-27T10:15:40.642Z,87.20
2019-06-27T10:18:11.376Z,91.20
2019-06-27T10:20:43.214Z,86.70
2019-06-27T10:23:15.832Z,85.40
2019-06-27T10:25:48.013Z,85.70
2019-06-27T10:28:43.652Z,83.80
2019-06-27T10:31:15.788Z,82.10
2019-06-27T10:33:47.595Z,81.30
2019-06-27T10:36:19.567Z,84.10
2019-06-27T10:38:51.242Z,85.50
2019-06-27T10:41:22.038Z,80.40
2019-06-27T10:43:53.926Z,79.40
2019-06-27T10:46:25.112Z,80.60
2019-06-27T10:48:56.609Z,79.70
2019-06-27T10:51:27.832Z,80.50
2019-06-27T10:53:59.548Z,74.50
2019-06-27T10:56:31.688Z,79.00
2019-06-27T10:59:05.495Z,75.60
2019-06-27T11:01:37.840Z,75.10
2019-06-27T11:04:09.531Z,72.70
2019-06-27T11:06:41.141Z,67.80
2019-06-27T11:09:14.400Z,70.90
2019-06-27T11:11:46.458Z,70.40
2019-06-27T11:14:19.222Z,68.30
2019-06-27T11:16:51.389Z,68.70
2019-06-27T11:19:23.284Z,62.80
2019-06-27T11:21:55.150Z,61.10
2019-06-27T11:24:27.374Z,63.40
2019-06-27T11:26:58.878Z,63.70
2019-06-27T11:29:30.408Z,60.10
2019-06-27T11:32:01.641Z,63.70
2019-06-27T11:34:35.086Z,63.10
2019-06-27T11:37:06.280Z,62.10
2019-06-27T11:39:37.736Z,59.20
2019-06-27T11:42:10.168Z,60.60
2019-06-27T11:44:41.724Z,61.00
2019-06-27T11:47:13.116Z,59.20
2019-06-27T11:49:44.891Z,60.20
2019-06-27T11:52:16.588Z,59.20
2019-06-27T11:54:47.680Z,60.20
2019-06-27T11:57:18.406Z,61.50
2019-06-27T11:59:50.129Z,59.30
2019-06-27T12:02:21.157Z,59.50
2019-06-27T12:04:53.443Z,60.70
2019-06-27T12:07:24.430Z,60.20
2019-06-27T12:09:55.824Z,62.00
2019-06-27T12:12:26.543Z,62.00
2019-06-27T12:14:58.226Z,65.40
2019-06-27T12:17:30.019Z,61.00
2019-06-27T12:20:01.523Z,60.30
2019-06-27T12:22:33.680Z,61.30
2019-06-27T12:25:04.964Z,59.40
2019-06-27T12:27:37.787Z,60.40
2019-06-27T12:30:09.173Z,60.60
2019-06-27T12:32:51.252Z,60.30
2019-06-27T12:35:13.601Z,60.70
2019-06-27T12:37:45.357Z,60.70
2019-06-27T12:40:17.979Z,59.10
2019-06-27T12:42:49.487Z,59.60
2019-06-27T12:45:21.096Z,59.00
2019-06-27T12:47:52.831Z,60.40
2019-06-27T12:50:25.129Z,58.70
2019-06-27T12:52:55.961Z,57.80
2019-06-27T12:55:27.440Z,60.40
2019-06-27T12:57:58.533Z,58.30
2019-06-27T13:00:30.364Z,58.60
2019-06-27T13:03:02.683Z,58.00
2019-06-27T13:05:34.552Z,57.40
2019-06-27T13:08:05.317Z,56.10
2019-06-27T13:10:36.496Z,55.30
2019-06-27T13:13:07.957Z,56.70
2019-06-27T13:15:38.964Z,56.90
2019-06-27T13:18:10.133Z,57.60
2019-06-27T13:20:56.579Z,56.90
2019-06-27T13:23:15.124Z,56.90
2019-06-27T13:25:46.140Z,59.20
2019-06-27T13:28:17.233Z,56.50
2019-06-27T13:30:48.375Z,55.80
2019-06-27T13:33:19.953Z,54.50
2019-06-27T13:35:51.652Z,53.60
2019-06-27T13:38:23.277Z,53.70
2019-06-27T13:40:54.312Z,53.20
2019-06-27T13:43:25.095Z,55.20
2019-06-27T13:45:55.848Z,52.60
2019-06-27T13:48:27.529Z,55.00
2019-06-27T13:50:59.105Z,51.40
2019-06-27T13:53:31.225Z,51.00
2019-06-27T13:56:02.841Z,50.40
2019-06-27T13:58:33.620Z,50.10
2019-06-27T14:01:05.076Z,48.90
2019-06-27T14:03:48.788Z,51.60
2019-06-27T14:06:09.222Z,48.90
2019-06-27T14:08:40.271Z,47.10
2019-06-27T14:11:11.811Z,48.50
2019-06-27T14:13:43.497Z,47.60
2019-06-27T14:16:14.401Z,46.80
2019-06-27T14:18:45.338Z,47.40
2019-06-27T14:21:17.011Z,47.20
2019-06-27T14:23:48.517Z,46.30
2019-06-27T14:26:19.483Z,45.10
2019-06-27T14:28:50.736Z,47.30
2019-06-27T14:31:21.719Z,47.50
2019-06-27T14:33:53.143Z,47.00
2019-06-27T14:36:24.074Z,48.00
2019-06-27T14:38:55.305Z,46.20
2019-06-27T14:41:26.561Z,44.30
2019-06-27T14:43:57.390Z,44.00
2019-06-27T14:46:28.876Z,44.40
2019-06-27T14:48:59.758Z,43.10
2019-06-27T14:51:31.094Z,44.00
2019-06-27T14:54:02.404Z,44.40
2019-06-27T14:56:33.455Z,42.80
2019-06-27T14:59:05.370Z,43.50
2019-06-27T15:01:36.693Z,44.70
2019-06-27T15:04:07.815Z,43.60
2019-06-27T15:06:39.241Z,44.50
2019-06-27T15:09:10.049Z,46.20
2019-06-27T15:11:42.491Z,46.10
2019-06-27T15:14:13.444Z,46.00
2019-06-27T15:16:44.371Z,45.80
2019-06-27T15:19:16.278Z,46.80
2019-06-27T15:21:47.166Z,47.80
2019-06-27T15:24:18.757Z,47.40
2019-06-27T15:26:49.311Z,47.70
2019-06-27T15:29:20.255Z,48.00
2019-06-27T15:31:51.165Z,49.40
2019-06-27T15:34:22.471Z,48.70
2019-06-27T15:36:53.654Z,48.00
2019-06-27T15:39:25.217Z,47.80
2019-06-27T15:41:56.764Z,48.50
2019-06-27T15:44:27.311Z,47.60
2019-06-27T15:46:58.590Z,49.10
2019-06-27T15:49:30.176Z,48.20
2019-06-27T15:52:01.541Z,48.30
2019-06-27T15:54:32.440Z,48.00
2019-06-27T15:57:03.628Z,47.60
2019-06-27T15:59:34.525Z,47.80
2019-06-27T16:02:05.681Z,48.50
2019-06-27T16:04:36.874Z,48.60
2019-06-27T16:07:07.435Z,48.30
2019-06-27T16:09:38.751Z,49.30
2019-06-27T16:12:09.635Z,48.10
2019-06-27T16:14:40.917Z,49.20
2019-06-27T16:17:11.835Z,49.10
2019-06-27T16:19:43.113Z,49.10
2019-06-27T16:22:14.026Z,49.50
2019-06-27T16:24:45.260Z,49.00
2019-06-27T16:27:16.424Z,48.90
2019-06-27T16:29:47.630Z,49.20
2019-06-27T16:32:18.876Z,51.00
2019-06-27T16:34:50.952Z,50.10
2019-06-27T16:37:22.297Z,50.40
2019-06-27T16:39:53.451Z,49.90
2019-06-27T16:42:24.284Z,50.20
2019-06-27T16:44:54.828Z,50.80
2019-06-27T16:47:26.056Z,51.60
2019-06-27T16:49:57.292Z,51.20
2019-06-27T16:52:28.441Z,51.50
2019-06-27T16:54:59.593Z,51.10
2019-06-27T16:57:30.870Z,51.70
2019-06-27T17:00:02.404Z,52.00
2019-06-27T17:02:34.140Z,52.40
2019-06-27T17:05:05.741Z,51.50
2019-06-27T17:07:36.740Z,51.20
2019-06-27T17:10:08.432Z,51.70
2019-06-27T17:12:39.447Z,52.00
2019-06-27T17:15:12.215Z,52.30
2019-06-27T17:17:43.604Z,51.70
2019-06-27T17:20:16.217Z,51.70
2019-06-27T17:22:48.491Z,52.00
2019-06-27T17:25:19.452Z,52.00
2019-06-27T17:27:50.324Z,52.10
2019-06-27T17:30:21.295Z,52.60
2019-06-27T17:32:53.499Z,51.80
2019-06-27T17:35:24.579Z,52.60
2019-06-27T17:37:56.441Z,52.20
2019-06-27T17:40:27.876Z,52.10
2019-06-27T17:42:59.011Z,52.80
2019-06-27T17:45:30.387Z,53.50
2019-06-27T17:48:01.632Z,53.90
2019-06-27T17:50:32.903Z,55.20
2019-06-27T17:53:03.523Z,54.80
2019-06-27T17:55:34.423Z,55.00
2019-06-27T17:58:05.255Z,55.70
2019-06-27T18:03:06.254Z,55.80
2019-06-27T18:05:37.552Z,55.80
2019-06-27T18:08:08.379Z,56.30
2019-06-27T18:10:38.918Z,56.90
2019-06-27T18:13:10.559Z,56.10
2019-06-27T18:15:42.277Z,57.50
2019-06-27T18:18:14.388Z,58.50
2019-06-27T18:23:16.409Z,58.20
2019-06-27T18:25:47.318Z,58.00
2019-06-27T18:28:19.341Z,58.90
2019-06-27T18:30:50.604Z,58.80
2019-06-27T18:33:23.019Z,59.40
2019-06-27T18:35:54.016Z,59.30
2019-06-27T18:38:25.214Z,59.60
2019-06-27T18:40:56.663Z,59.20
2019-06-27T18:43:27.863Z,59.70
2019-06-27T18:45:59.279Z,60.10
2019-06-27T18:48:30.636Z,60.00
2019-06-27T18:51:02.080Z,60.40
2019-06-27T18:53:34.224Z,60.20
2019-06-27T18:56:05.721Z,60.00
2019-06-27T18:58:37.038Z,61.20
2019-06-27T19:01:09.201Z,60.60
2019-06-27T19:03:40.439Z,61.70
2019-06-27T19:06:11.686Z,61.60
2019-06-27T19:08:42.940Z,61.00
2019-06-27T19:11:14.113Z,62.70
2019-06-27T19:13:46.400Z,62.60
2019-06-27T19:16:17.949Z,62.90
2019-06-27T19:18:53.117Z,63.90
2019-06-27T19:21:32.642Z,63.80
2019-06-27T19:24:21.250Z,64.50
2019-06-27T19:26:53.864Z,65.10
2019-06-27T19:29:26.008Z,65.60
2019-06-27T19:31:56.981Z,65.60
2019-06-27T19:34:28.576Z,64.40
2019-06-27T19:36:59.551Z,64.50
2019-06-27T19:39:30.105Z,66.10
2019-06-27T19:42:01.525Z,67.30
2019-06-27T19:44:32.739Z,66.30
2019-06-27T19:47:03.704Z,66.20
2019-06-27T19:49:35.281Z,68.30
2019-06-27T19:52:06.671Z,68.40
2019-06-27T19:54:38.031Z,68.90
2019-06-27T19:57:09.582Z,69.40
2019-06-27T19:59:42.260Z,69.90
2019-06-27T20:02:13.504Z,66.90
2019-06-27T20:04:44.420Z,69.80
2019-06-27T20:07:17.088Z,69.40
2019-06-27T20:09:48.257Z,70.70
2019-06-27T20:12:19.549Z,68.90
2019-06-27T20:14:51.262Z,72.20
2019-06-27T20:17:22.547Z,71.40
2019-06-27T20:19:54.756Z,69.70
2019-06-27T20:22:25.380Z,71.20
2019-06-27T20:24:56.664Z,73.50
2019-06-27T20:27:28.747Z,73.60
2019-06-27T20:29:59.627Z,72.00
2019-06-27T20:32:30.251Z,74.20
2019-06-27T20:37:32.859Z,74.30
2019-06-27T20:40:04.396Z,75.40
2019-06-27T20:42:35.868Z,73.70
2019-06-27T20:45:06.565Z,75.90
2019-06-27T20:47:38.043Z,76.20
2019-06-27T20:50:10.323Z,74.90
2019-06-27T20:52:41.952Z,75.40
2019-06-27T20:55:13.095Z,75.20
2019-06-27T20:57:44.071Z,74.40
2019-06-27T21:00:16.763Z,75.70
2019-06-27T21:02:47.617Z,73.50
2019-06-27T21:05:19.134Z,75.80
2019-06-27T21:07:49.768Z,77.30
2019-06-27T21:10:20.465Z,76.80
2019-06-27T21:12:51.703Z,77.60
2019-06-27T21:15:24.437Z,76.10
2019-06-27T21:17:55.503Z,79.30
2019-06-27T21:20:27.132Z,79.00
2019-06-27T21:22:58.240Z,79.60
2019-06-27T21:25:29.746Z,78.30
2019-06-27T21:28:16.485Z,79.10
2019-06-27T21:30:48.062Z,80.30
2019-06-27T21:33:19.824Z,80.10
2019-06-27T21:35:51.205Z,77.40
2019-06-27T21:38:22.456Z,80.90
2019-06-27T21:40:53.454Z,79.20
2019-06-27T21:43:24.181Z,80.50
2019-06-27T21:45:55.382Z,81.10
2019-06-27T21:48:27.268Z,79.20
2019-06-27T21:50:58.999Z,82.10
2019-06-27T21:53:30.071Z,80.60
2019-06-27T21:56:02.133Z,81.50
2019-06-27T21:58:34.013Z,81.60
2019-06-27T22:01:05.574Z,81.40
2019-06-27T22:03:37.769Z,79.30
2019-06-27T22:06:09.194Z,83.20
2019-06-27T22:08:40.911Z,80.20
2019-06-27T22:11:13.019Z,82.60
2019-06-27T22:13:44.993Z,80.10
2019-06-27T22:16:16.742Z,81.80
2019-06-27T22:18:48.470Z,85.00
2019-06-27T22:21:20.073Z,87.10
2019-06-27T22:23:51.614Z,86.30
2019-06-27T22:26:23.689Z,83.50
2019-06-27T22:28:55.423Z,83.60
2019-06-27T22:31:26.955Z,82.70
2019-06-27T22:33:58.544Z,85.70
2019-06-27T22:36:29.671Z,87.70
2019-06-27T22:39:18.568Z,83.60
2019-06-27T22:44:56.317Z,81.80
2019-06-27T22:47:45.628Z,88.00
2019-06-27T22:50:29.029Z,88.30
2019-06-27T22:53:12.241Z,79.60
2019-06-27T22:55:43.465Z,84.00
2019-06-27T22:58:15.266Z,88.50
2019-06-27T23:00:47.018Z,90.30
2019-06-27T23:03:20.029Z,91.80
2019-06-27T23:05:52.172Z,90.20
2019-06-27T23:08:25.039Z,90.30
2019-06-27T23:10:56.852Z,88.00
2019-06-27T23:13:28.610Z,86.60
2019-06-27T23:15:59.994Z,85.70
2019-06-27T23:18:30.997Z,91.50
2019-06-27T23:21:02.125Z,91.80
2019-06-27T23:23:33.655Z,90.00
2019-06-27T23:26:04.516Z,88.00
2019-06-27T23:28:36.200Z,91.20
2019-06-27T23:31:07.646Z,90.30
2019-06-27T23:33:39.427Z,90.90
2019-06-27T23:36:12.169Z,92.50
2019-06-27T23:38:43.200Z,92.80
2019-06-27T23:41:14.502Z,91.20
2019-06-27T23:43:45.496Z,92.90
2019-06-27T23:46:50.444Z,93.30
2019-06-27T23:49:21.511Z,93.60
2019-06-27T23:51:52.869Z,92.50
2019-06-27T23:54:23.977Z,92.40
2019-06-27T23:56:55.402Z,95.20
2019-06-27T23:59:28.044Z,96.60
